Time;durP1;ratioP1;P1;durP2;ratioP2;P2;SDS_P1;SDS_P2;PMS_P1;PMS_P2;Temp;Humidity;BMP_temperature;BMP_pressure;BME280_temperature;BME280_humidity;BME280_pressure;Samples;Min_cycle;Max_cycle;Signal;HPM_P1;HPM_P2
2021/11/27 00:00:22;;;;;;;11.00;6.60;;;;;;;;;;5088015;28;20108;-70
2021/11/27 00:02:48;;;;;;;10.27;6.87;;;;;;;;;;5082895;28;20081;-70
2021/11/27 00:05:14;;;;;;;11.23;6.70;;;;;;;;;;5074537;28;20016;-70
2021/11/27 00:07:39;;;;;;;9.87;6.37;;;;;;;;;;5089970;28;20027;-70
2021/11/27 00:10:06;;;;;;;10.03;6.40;;;;;;;;;;5093914;28;20023;-69
2021/11/27 00:12:32;;;;;;;11.77;6.50;;;;;;;;;;5073258;28;20027;-70
2021/11/27 00:14:57;;;;;;;13.70;6.67;;;;;;;;;;5073180;28;20024;-71
2021/11/27 00:17:22;;;;;;;9.87;6.10;;;;;;;;;;5071293;28;20035;-70
2021/11/27 00:19:48;;;;;;;9.33;6.53;;;;;;;;;;5073960;28;20090;-71
2021/11/27 00:22:13;;;;;;;11.20;6.90;;;;;;;;;;5072824;28;20465;-70
2021/11/27 00:24:38;;;;;;;11.83;6.90;;;;;;;;;;5078885;28;20025;-70
2021/11/27 00:27:04;;;;;;;9.13;6.30;;;;;;;;;;5086457;28;20060;-70
2021/11/27 00:29:30;;;;;;;10.67;6.50;;;;;;;;;;5086968;28;20028;-70
2021/11/27 00:31:55;;;;;;;11.20;6.97;;;;;;;;;;5088784;28;20488;-70
2021/11/27 00:34:20;;;;;;;10.80;6.73;;;;;;;;;;5091656;28;20059;-70
2021/11/27 00:36:46;;;;;;;10.93;5.90;;;;;;;;;;5090743;28;20027;-70
2021/11/27 00:39:11;;;;;;;8.77;6.00;;;;;;;;;;5086856;28;20032;-70
2021/11/27 00:41:37;;;;;;;9.10;6.20;;;;;;;;;;5089999;28;20488;-70
2021/11/27 00:44:02;;;;;;;8.97;5.80;;;;;;;;;;5072395;28;20090;-70
2021/11/27 00:46:28;;;;;;;10.27;6.83;;;;;;;;;;5086269;28;20396;-70
2021/11/27 00:48:53;;;;;;;10.67;6.07;;;;;;;;;;5078138;28;20029;-70
2021/11/27 00:51:20;;;;;;;8.30;5.40;;;;;;;;;;5082810;28;20081;-70
2021/11/27 00:53:46;;;;;;;10.93;6.00;;;;;;;;;;5086240;28;20483;-70
2021/11/27 00:56:14;;;;;;;11.20;6.07;;;;;;;;;;5095776;28;20020;-70
2021/11/27 00:58:39;;;;;;;7.90;5.30;;;;;;;;;;5099257;28;20051;-70
2021/11/27 01:01:08;;;;;;;9.10;5.57;;;;;;;;;;5092052;28;20036;-70
2021/11/27 01:03:34;;;;;;;9.37;5.33;;;;;;;;;;5090158;28;20020;-70
2021/11/27 01:06:00;;;;;;;9.77;6.43;;;;;;;;;;5088858;28;20032;-70
2021/11/27 01:08:26;;;;;;;9.20;5.60;;;;;;;;;;5075362;28;20060;-70
2021/11/27 01:10:55;;;;;;;9.60;5.73;;;;;;;;;;5074511;28;20055;-70
2021/11/27 01:13:20;;;;;;;7.87;5.03;;;;;;;;;;5077740;28;20039;-70
2021/11/27 01:15:46;;;;;;;9.90;5.97;;;;;;;;;;5084541;28;20016;-69
2021/11/27 01:18:11;;;;;;;8.97;5.53;;;;;;;;;;5086793;28;20099;-69
2021/11/27 01:20:39;;;;;;;9.20;5.47;;;;;;;;;;5077297;28;20459;-69
2021/11/27 01:23:05;;;;;;;8.97;5.60;;;;;;;;;;5081673;28;20368;-69
2021/11/27 01:25:30;;;;;;;8.33;5.33;;;;;;;;;;5082340;28;20031;-69
2021/11/27 01:27:55;;;;;;;9.83;5.27;;;;;;;;;;5101441;28;20020;-69
2021/11/27 01:30:21;;;;;;;7.27;5.03;;;;;;;;;;5079593;28;20020;-69
2021/11/27 01:32:46;;;;;;;9.20;5.50;;;;;;;;;;5080640;28;20450;-69
2021/11/27 01:35:12;;;;;;;7.33;5.00;;;;;;;;;;5088412;28;20031;-68
2021/11/27 01:37:38;;;;;;;8.73;5.07;;;;;;;;;;5113008;27;20096;-68
2021/11/27 01:40:05;;;;;;;7.13;4.77;;;;;;;;;;5076102;28;20021;-68
2021/11/27 01:42:30;;;;;;;8.37;5.10;;;;;;;;;;5098132;28;20126;-68
2021/11/27 01:44:56;;;;;;;11.13;5.73;;;;;;;;;;5080107;28;20070;-68
2021/11/27 01:47:21;;;;;;;8.87;5.40;;;;;;;;;;5080852;28;20047;-68
2021/11/27 01:49:46;;;;;;;7.77;4.73;;;;;;;;;;5087495;28;20013;-69
2021/11/27 01:52:12;;;;;;;7.57;5.40;;;;;;;;;;5091656;28;20043;-69
2021/11/27 01:54:37;;;;;;;8.27;5.07;;;;;;;;;;5085044;28;20023;-69
2021/11/27 01:57:04;;;;;;;9.73;5.37;;;;;;;;;;5084529;28;20475;-69
2021/11/27 01:59:30;;;;;;;7.40;4.47;;;;;;;;;;5097694;28;20059;-69
2021/11/27 02:01:56;;;;;;;8.90;5.23;;;;;;;;;;5087254;28;20039;-69
2021/11/27 02:04:22;;;;;;;7.83;4.17;;;;;;;;;;5072218;28;20017;-69
2021/11/27 02:06:47;;;;;;;9.30;4.90;;;;;;;;;;5070527;28;20186;-69
2021/11/27 02:09:15;;;;;;;8.93;4.47;;;;;;;;;;5090268;28;20598;-70
2021/11/27 02:11:41;;;;;;;8.63;5.40;;;;;;;;;;5091473;28;20484;-70
2021/11/27 02:14:07;;;;;;;8.43;5.13;;;;;;;;;;5085512;28;20023;-70
2021/11/27 02:16:33;;;;;;;7.50;4.37;;;;;;;;;;5075206;28;20472;-70
2021/11/27 02:18:58;;;;;;;6.30;4.53;;;;;;;;;;5087082;28;20074;-70
2021/11/27 02:21:24;;;;;;;7.87;4.57;;;;;;;;;;5083577;28;20078;-70
2021/11/27 02:23:49;;;;;;;7.20;4.87;;;;;;;;;;5105552;27;20133;-71
2021/11/27 02:26:17;;;;;;;6.97;4.33;;;;;;;;;;5092961;28;20528;-71
2021/11/27 02:28:45;;;;;;;7.17;4.73;;;;;;;;;;5097722;28;20032;-71
2021/11/27 02:31:10;;;;;;;6.57;4.03;;;;;;;;;;5092085;28;20016;-70
2021/11/27 02:33:35;;;;;;;7.93;4.97;;;;;;;;;;5094370;28;20472;-70
2021/11/27 02:36:01;;;;;;;7.53;4.30;;;;;;;;;;5093552;28;20023;-70
2021/11/27 02:38:26;;;;;;;6.20;4.20;;;;;;;;;;5076606;28;20035;-70
2021/11/27 02:40:52;;;;;;;7.67;5.10;;;;;;;;;;5090817;28;20027;-70
2021/11/27 02:43:17;;;;;;;9.10;5.40;;;;;;;;;;5097598;28;20020;-69
2021/11/27 02:45:43;;;;;;;7.33;4.80;;;;;;;;;;5077702;28;20111;-69
2021/11/27 02:48:08;;;;;;;8.13;4.93;;;;;;;;;;5081473;28;20016;-71
2021/11/27 02:50:33;;;;;;;9.37;5.37;;;;;;;;;;5092042;28;20165;-71
2021/11/27 02:52:59;;;;;;;8.07;5.20;;;;;;;;;;5091171;28;20020;-71
2021/11/27 02:55:24;;;;;;;8.57;5.10;;;;;;;;;;5084886;28;20480;-70
2021/11/27 02:57:49;;;;;;;8.00;5.00;;;;;;;;;;5094415;28;20020;-70
2021/11/27 03:00:18;;;;;;;8.57;5.20;;;;;;;;;;5090190;28;20020;-70
2021/11/27 03:02:43;;;;;;;8.60;5.30;;;;;;;;;;5083319;28;20020;-70
2021/11/27 03:05:09;;;;;;;7.53;4.93;;;;;;;;;;5094498;28;20020;-69
2021/11/27 03:07:34;;;;;;;11.13;5.47;;;;;;;;;;5092736;28;20564;-70
2021/11/27 03:09:59;;;;;;;8.33;5.20;;;;;;;;;;5090075;28;20025;-70
2021/11/27 03:12:25;;;;;;;8.87;4.57;;;;;;;;;;5080525;28;20455;-71
2021/11/27 03:14:51;;;;;;;7.73;4.70;;;;;;;;;;5093135;28;20506;-71
2021/11/27 03:17:16;;;;;;;8.30;5.77;;;;;;;;;;5094067;28;20044;-71
2021/11/27 03:19:42;;;;;;;7.67;5.43;;;;;;;;;;5090537;28;20062;-71
2021/11/27 03:22:09;;;;;;;7.10;5.10;;;;;;;;;;5093957;28;20061;-70
2021/11/27 03:24:35;;;;;;;8.57;4.80;;;;;;;;;;5088152;28;20039;-70
2021/11/27 03:27:01;;;;;;;8.80;5.03;;;;;;;;;;5092755;28;20027;-70
2021/11/27 03:29:26;;;;;;;8.07;5.13;;;;;;;;;;5091964;28;20020;-70
2021/11/27 03:31:56;;;;;;;7.13;4.40;;;;;;;;;;5088779;28;20431;-70
2021/11/27 03:34:21;;;;;;;7.97;4.80;;;;;;;;;;5085818;28;20020;-70
2021/11/27 03:36:46;;;;;;;7.60;4.83;;;;;;;;;;5092794;28;20073;-70
2021/11/27 03:39:13;;;;;;;9.30;5.30;;;;;;;;;;5094282;28;20476;-70
2021/11/27 03:41:38;;;;;;;8.30;5.37;;;;;;;;;;5090414;28;20035;-70
2021/11/27 03:44:04;;;;;;;7.23;4.63;;;;;;;;;;5089141;28;20028;-70
2021/11/27 03:46:29;;;;;;;9.00;5.20;;;;;;;;;;5089741;28;20016;-70
2021/11/27 03:48:55;;;;;;;8.03;4.80;;;;;;;;;;5080305;28;20517;-70
2021/11/27 03:51:21;;;;;;;7.40;4.80;;;;;;;;;;5089606;28;20481;-70
2021/11/27 03:53:47;;;;;;;9.13;4.87;;;;;;;;;;5081843;28;20099;-70
2021/11/27 03:56:15;;;;;;;7.40;4.73;;;;;;;;;;5078051;28;20123;-70
2021/11/27 03:58:40;;;;;;;9.03;5.30;;;;;;;;;;5085405;28;20012;-70
2021/11/27 04:01:07;;;;;;;7.87;5.10;;;;;;;;;;5090515;28;20035;-71
2021/11/27 04:03:33;;;;;;;7.83;4.90;;;;;;;;;;5086852;28;20051;-70
2021/11/27 04:05:59;;;;;;;8.60;5.00;;;;;;;;;;5091884;28;20476;-70
2021/11/27 04:08:24;;;;;;;8.97;5.50;;;;;;;;;;5093949;28;20047;-69
2021/11/27 04:10:50;;;;;;;8.00;5.37;;;;;;;;;;5087315;28;20416;-69
2021/11/27 04:13:16;;;;;;;9.57;5.57;;;;;;;;;;5087829;28;20039;-69
2021/11/27 04:15:41;;;;;;;9.33;5.53;;;;;;;;;;5092014;28;20055;-69
2021/11/27 04:18:07;;;;;;;8.93;5.97;;;;;;;;;;5093427;28;20502;-69
2021/11/27 04:20:32;;;;;;;8.40;5.60;;;;;;;;;;5093181;28;20027;-70
2021/11/27 04:22:58;;;;;;;9.87;6.17;;;;;;;;;;5087405;28;20431;-70
2021/11/27 04:25:23;;;;;;;8.30;5.57;;;;;;;;;;5079447;28;20158;-69
2021/11/27 04:27:49;;;;;;;9.50;5.87;;;;;;;;;;5087494;28;20055;-69
2021/11/27 04:30:17;;;;;;;10.53;6.20;;;;;;;;;;5086558;28;20016;-69
2021/11/27 04:32:44;;;;;;;9.67;6.00;;;;;;;;;;5083482;28;20051;-69
2021/11/27 04:35:10;;;;;;;11.27;6.53;;;;;;;;;;5080605;28;20037;-69
2021/11/27 04:37:35;;;;;;;9.97;6.17;;;;;;;;;;5092946;28;20028;-69
2021/11/27 04:40:03;;;;;;;9.33;5.67;;;;;;;;;;5089274;28;20020;-69
2021/11/27 04:42:28;;;;;;;9.87;5.83;;;;;;;;;;5090559;28;20488;-70
2021/11/27 04:44:54;;;;;;;10.73;6.73;;;;;;;;;;5083702;28;20107;-70
2021/11/27 04:47:20;;;;;;;10.17;6.03;;;;;;;;;;5094793;28;20020;-70
2021/11/27 04:49:45;;;;;;;11.73;6.93;;;;;;;;;;5102304;28;20365;-69
2021/11/27 04:52:10;;;;;;;9.10;6.00;;;;;;;;;;5092275;28;20357;-69
2021/11/27 04:54:35;;;;;;;9.37;5.97;;;;;;;;;;5079559;28;20515;-69
2021/11/27 04:57:01;;;;;;;12.17;7.13;;;;;;;;;;5091305;28;20024;-69
2021/11/27 04:59:26;;;;;;;10.03;6.73;;;;;;;;;;5075791;28;20035;-69
2021/11/27 05:01:52;;;;;;;10.13;5.90;;;;;;;;;;5089782;28;20020;-69
2021/11/27 05:04:17;;;;;;;9.53;6.00;;;;;;;;;;5083701;28;20023;-69
2021/11/27 05:06:43;;;;;;;9.97;5.97;;;;;;;;;;5072135;28;20416;-69
2021/11/27 05:09:08;;;;;;;12.20;6.53;;;;;;;;;;5090426;28;20020;-70
2021/11/27 05:11:33;;;;;;;9.70;6.03;;;;;;;;;;5078945;28;20055;-70
2021/11/27 05:13:59;;;;;;;11.23;6.67;;;;;;;;;;5080252;28;20372;-70
2021/11/27 05:16:26;;;;;;;8.90;6.20;;;;;;;;;;5075272;28;20492;-69
2021/11/27 05:18:51;;;;;;;9.33;6.17;;;;;;;;;;5082149;28;20061;-69
2021/11/27 05:21:17;;;;;;;9.37;6.03;;;;;;;;;;5070525;28;20074;-70
2021/11/27 05:23:42;;;;;;;9.33;6.60;;;;;;;;;;5068224;28;20025;-70
2021/11/27 05:26:07;;;;;;;9.33;5.90;;;;;;;;;;5073120;28;20113;-70
2021/11/27 05:28:33;;;;;;;10.40;5.97;;;;;;;;;;5060597;28;20377;-70
2021/11/27 05:30:58;;;;;;;10.63;6.50;;;;;;;;;;5088544;28;20016;-69
2021/11/27 05:33:36;;;;;;;8.50;6.13;;;;;;;;;;5076896;28;20435;-70
2021/11/27 05:36:02;;;;;;;9.13;6.37;;;;;;;;;;5082140;28;20504;-70
2021/11/27 05:38:28;;;;;;;9.33;6.70;;;;;;;;;;5091688;28;20028;-70
2021/11/27 05:40:53;;;;;;;10.23;6.53;;;;;;;;;;5084004;28;20028;-70
2021/11/27 05:43:18;;;;;;;9.03;6.17;;;;;;;;;;5079934;28;20023;-70
2021/11/27 05:45:44;;;;;;;9.20;6.60;;;;;;;;;;5090914;28;20392;-70
2021/11/27 05:48:09;;;;;;;9.40;5.93;;;;;;;;;;5091603;28;20099;-70
2021/11/27 05:50:34;;;;;;;8.97;6.20;;;;;;;;;;5091891;28;20020;-71
2021/11/27 05:53:00;;;;;;;9.00;6.30;;;;;;;;;;5087895;28;20029;-70
2021/11/27 05:55:25;;;;;;;8.27;5.83;;;;;;;;;;5070700;28;20610;-70
2021/11/27 05:57:50;;;;;;;8.60;5.90;;;;;;;;;;5076656;28;20024;-70
2021/11/27 06:00:16;;;;;;;9.40;6.57;;;;;;;;;;5070574;28;20028;-69
2021/11/27 06:02:41;;;;;;;8.07;5.70;;;;;;;;;;5078875;28;20032;-70
2021/11/27 06:05:07;;;;;;;9.47;6.40;;;;;;;;;;5071787;28;20028;-70
2021/11/27 06:07:33;;;;;;;8.30;6.27;;;;;;;;;;5069193;28;20034;-70
2021/11/27 06:09:58;;;;;;;8.13;6.20;;;;;;;;;;5091898;28;20024;-69
2021/11/27 06:12:23;;;;;;;8.47;6.47;;;;;;;;;;5091462;28;20107;-70
2021/11/27 06:14:49;;;;;;;10.07;6.30;;;;;;;;;;5075447;28;20035;-70
2021/11/27 06:17:14;;;;;;;9.63;6.57;;;;;;;;;;5078498;28;20016;-70
2021/11/27 06:19:39;;;;;;;8.47;6.33;;;;;;;;;;5079184;28;20104;-70
2021/11/27 06:22:05;;;;;;;10.50;6.67;;;;;;;;;;5085742;28;20028;-71
2021/11/27 06:24:30;;;;;;;9.23;6.70;;;;;;;;;;5078153;28;20021;-72
2021/11/27 06:26:55;;;;;;;8.93;6.43;;;;;;;;;;5080394;28;20111;-71
2021/11/27 06:29:20;;;;;;;10.53;6.93;;;;;;;;;;5071522;28;20040;-71
2021/11/27 06:31:46;;;;;;;10.90;7.30;;;;;;;;;;5068847;28;20057;-71
2021/11/27 06:34:11;;;;;;;9.43;7.10;;;;;;;;;;5070007;28;20108;-70
2021/11/27 06:36:37;;;;;;;9.63;7.13;;;;;;;;;;5072890;28;20049;-70
2021/11/27 06:39:03;;;;;;;10.30;7.10;;;;;;;;;;5076276;28;20021;-70
2021/11/27 06:41:28;;;;;;;9.00;7.10;;;;;;;;;;5080374;28;20051;-69
2021/11/27 06:43:53;;;;;;;10.43;7.57;;;;;;;;;;5085796;28;20051;-69
2021/11/27 06:46:19;;;;;;;12.00;7.83;;;;;;;;;;5088582;28;20388;-69
2021/11/27 06:48:44;;;;;;;10.17;7.37;;;;;;;;;;5072755;28;20529;-69
2021/11/27 06:51:11;;;;;;;11.27;7.80;;;;;;;;;;5091141;28;20021;-71
2021/11/27 06:53:37;;;;;;;10.83;7.67;;;;;;;;;;5079813;28;20058;-70
2021/11/27 06:56:03;;;;;;;9.33;7.30;;;;;;;;;;5080875;28;20024;-70
2021/11/27 06:58:28;;;;;;;9.63;6.90;;;;;;;;;;5073429;28;20086;-70
2021/11/27 07:00:53;;;;;;;11.37;7.63;;;;;;;;;;5082047;28;20024;-70
2021/11/27 07:03:18;;;;;;;10.33;7.70;;;;;;;;;;5078758;28;20504;-70
2021/11/27 07:05:44;;;;;;;10.90;8.03;;;;;;;;;;5108128;28;20032;-70
2021/11/27 07:08:09;;;;;;;10.80;7.97;;;;;;;;;;5080055;28;20020;-69
2021/11/27 07:10:35;;;;;;;11.13;8.20;;;;;;;;;;5082976;28;20092;-70
2021/11/27 07:13:01;;;;;;;11.45;7.93;;;;;;;;;;5073942;28;20055;-70
2021/11/27 07:15:27;;;;;;;8.30;7.03;;;;;;;;;;5074368;28;20220;-70
2021/11/27 07:17:52;;;;;;;9.73;7.53;;;;;;;;;;5083761;28;20027;-71
2021/11/27 07:20:17;;;;;;;10.40;6.97;;;;;;;;;;5075656;28;20111;-70
2021/11/27 07:22:42;;;;;;;9.77;7.68;;;;;;;;;;5073916;28;20068;-70
2021/11/27 07:25:08;;;;;;;10.20;7.65;;;;;;;;;;5084604;28;20032;-70
2021/11/27 07:27:33;;;;;;;11.55;7.80;;;;;;;;;;5075211;28;20027;-70
2021/11/27 07:29:59;;;;;;;10.47;7.40;;;;;;;;;;5082749;28;20032;-70
2021/11/27 07:32:24;;;;;;;9.27;7.27;;;;;;;;;;5081899;28;20074;-71
2021/11/27 07:34:50;;;;;;;11.10;7.37;;;;;;;;;;5092174;28;20028;-71
2021/11/27 07:37:15;;;;;;;12.27;8.67;;;;;;;;;;5093187;28;20554;-71
2021/11/27 07:39:41;;;;;;;11.47;8.13;;;;;;;;;;5092526;28;20032;-68
2021/11/27 07:42:06;;;;;;;11.70;8.10;;;;;;;;;;5074731;28;20364;-70
2021/11/27 07:44:32;;;;;;;10.90;8.05;;;;;;;;;;5094007;28;20020;-69
2021/11/27 07:46:57;;;;;;;10.75;8.15;;;;;;;;;;5092949;28;20024;-69
2021/11/27 07:49:23;;;;;;;11.45;8.65;;;;;;;;;;5075403;28;20028;-70
2021/11/27 07:51:48;;;;;;;10.25;7.38;;;;;;;;;;5076410;28;20016;-70
2021/11/27 07:54:14;;;;;;;10.93;8.23;;;;;;;;;;5087333;28;20035;-69
2021/11/27 07:56:39;;;;;;;10.15;7.63;;;;;;;;;;5079917;28;20020;-69
2021/11/27 07:59:05;;;;;;;10.88;8.25;;;;;;;;;;5077994;28;20024;-69
2021/11/27 08:01:32;;;;;;;10.93;8.45;;;;;;;;;;5072357;28;20047;-69
2021/11/27 08:03:58;;;;;;;10.75;7.68;;;;;;;;;;5076095;28;20039;-69
2021/11/27 08:06:23;;;;;;;11.70;7.55;;;;;;;;;;5088035;28;20106;-70
2021/11/27 08:08:48;;;;;;;10.82;8.27;;;;;;;;;;5088293;28;20031;-70
2021/11/27 08:11:14;;;;;;;10.88;7.72;;;;;;;;;;5073268;28;20469;-70
2021/11/27 08:13:42;;;;;;;11.15;8.90;;;;;;;;;;5069402;28;20052;-70
2021/11/27 08:16:08;;;;;;;11.38;8.38;;;;;;;;;;5081372;28;21514;-70
2021/11/27 08:18:33;;;;;;;12.07;8.43;;;;;;;;;;5077449;28;20016;-70
2021/11/27 08:21:00;;;;;;;12.32;8.82;;;;;;;;;;5073536;28;20024;-70
2021/11/27 08:23:25;;;;;;;13.05;8.98;;;;;;;;;;5079552;28;20085;-70
2021/11/27 08:25:50;;;;;;;11.10;8.38;;;;;;;;;;5088414;28;20058;-70
2021/11/27 08:28:16;;;;;;;11.57;8.93;;;;;;;;;;5091596;28;20590;-70
2021/11/27 08:30:41;;;;;;;12.33;8.63;;;;;;;;;;5089896;28;20035;-69
2021/11/27 08:33:06;;;;;;;11.45;7.93;;;;;;;;;;5091313;28;20039;-70
2021/11/27 08:35:32;;;;;;;12.27;9.63;;;;;;;;;;5084963;28;20111;-70
2021/11/27 08:37:57;;;;;;;11.60;8.55;;;;;;;;;;5088204;28;20028;-70
2021/11/27 08:40:23;;;;;;;12.53;9.07;;;;;;;;;;5077881;28;20032;-71
2021/11/27 08:42:48;;;;;;;11.65;8.38;;;;;;;;;;5091046;28;20483;-71
2021/11/27 08:45:14;;;;;;;11.60;8.48;;;;;;;;;;5090873;28;20031;-70
2021/11/27 08:47:39;;;;;;;11.60;8.60;;;;;;;;;;5071747;28;20032;-70
2021/11/27 08:50:06;;;;;;;10.70;7.80;;;;;;;;;;5092801;28;20026;-71
2021/11/27 08:52:31;;;;;;;10.85;8.50;;;;;;;;;;5082729;28;20115;-70
2021/11/27 08:54:56;;;;;;;11.15;8.20;;;;;;;;;;5075921;28;20120;-70
2021/11/27 08:57:23;;;;;;;11.23;7.82;;;;;;;;;;5074958;28;20024;-71
2021/11/27 08:59:48;;;;;;;10.10;8.02;;;;;;;;;;5085579;28;20395;-70
2021/11/27 09:02:14;;;;;;;12.65;8.70;;;;;;;;;;5067479;28;20501;-71
2021/11/27 09:04:39;;;;;;;10.88;8.05;;;;;;;;;;5076318;28;20021;-71
2021/11/27 09:07:05;;;;;;;11.35;8.18;;;;;;;;;;5065494;28;20028;-71
2021/11/27 09:09:31;;;;;;;13.68;8.95;;;;;;;;;;5079673;28;20469;-71
2021/11/27 09:11:56;;;;;;;11.07;8.35;;;;;;;;;;5072395;28;20052;-71
2021/11/27 09:14:21;;;;;;;11.55;8.43;;;;;;;;;;5060058;28;20056;-71
2021/11/27 09:16:50;;;;;;;10.32;8.07;;;;;;;;;;5076794;28;20037;-71
2021/11/27 09:19:15;;;;;;;10.18;8.20;;;;;;;;;;5081283;28;20028;-71
2021/11/27 09:21:40;;;;;;;9.95;7.75;;;;;;;;;;5090949;28;20504;-71
2021/11/27 09:24:06;;;;;;;10.77;7.93;;;;;;;;;;5073393;28;20064;-71
2021/11/27 09:26:31;;;;;;;9.30;7.25;;;;;;;;;;5072861;28;20035;-71
2021/11/27 09:28:57;;;;;;;10.07;7.00;;;;;;;;;;5083354;28;20016;-71
2021/11/27 09:31:22;;;;;;;8.73;6.53;;;;;;;;;;5087892;28;20145;-71
2021/11/27 09:33:47;;;;;;;12.10;8.18;;;;;;;;;;5075074;28;20107;-69
2021/11/27 09:36:15;;;;;;;10.45;7.97;;;;;;;;;;5074042;28;20036;-69
2021/11/27 09:38:42;;;;;;;11.35;8.23;;;;;;;;;;5087271;28;20028;-69
2021/11/27 09:41:10;;;;;;;10.10;7.80;;;;;;;;;;5085010;28;20119;-70
2021/11/27 09:43:37;;;;;;;9.80;7.60;;;;;;;;;;5074106;28;20024;-69
2021/11/27 09:46:02;;;;;;;10.05;8.10;;;;;;;;;;5083168;28;20448;-69
2021/11/27 09:48:29;;;;;;;7.97;6.38;;;;;;;;;;5079028;28;20077;-70
2021/11/27 09:50:55;;;;;;;8.43;6.50;;;;;;;;;;5086310;28;20499;-70
2021/11/27 09:53:21;;;;;;;10.85;7.78;;;;;;;;;;5071256;28;20037;-70
2021/11/27 09:55:47;;;;;;;8.20;6.40;;;;;;;;;;5075515;28;20543;-70
2021/11/27 09:58:12;;;;;;;10.63;7.03;;;;;;;;;;5071578;28;20048;-71
2021/11/27 10:00:38;;;;;;;10.07;6.18;;;;;;;;;;5091996;28;20024;-71
2021/11/27 10:03:06;;;;;;;7.55;5.80;;;;;;;;;;5087613;28;20016;-71
2021/11/27 10:05:32;;;;;;;8.32;6.20;;;;;;;;;;5090073;28;20027;-71
2021/11/27 10:07:57;;;;;;;9.27;5.15;;;;;;;;;;5083407;28;20020;-71
2021/11/27 10:10:22;;;;;;;7.18;5.70;;;;;;;;;;5088149;28;20028;-71
2021/11/27 10:12:48;;;;;;;7.72;5.80;;;;;;;;;;5074144;28;20013;-71
2021/11/27 10:15:14;;;;;;;6.65;5.13;;;;;;;;;;5071635;28;20029;-71
2021/11/27 10:17:40;;;;;;;6.93;4.97;;;;;;;;;;5077838;28;20020;-71
2021/11/27 10:20:06;;;;;;;6.72;4.97;;;;;;;;;;5080696;28;20055;-71
2021/11/27 10:22:37;;;;;;;6.32;4.57;;;;;;;;;;5073906;28;20099;-71
2021/11/27 10:25:20;;;;;;;6.25;4.50;;;;;;;;;;5070094;28;20024;-71
2021/11/27 10:27:45;;;;;;;5.72;4.25;;;;;;;;;;5071166;28;20013;-71
2021/11/27 10:30:12;;;;;;;6.00;3.80;;;;;;;;;;5077395;28;20035;-71
2021/11/27 10:32:41;;;;;;;4.50;3.72;;;;;;;;;;5088924;28;20615;-71
2021/11/27 10:35:08;;;;;;;5.38;4.10;;;;;;;;;;5087979;28;20020;-71
2021/11/27 10:37:42;;;;;;;4.40;3.50;;;;;;;;;;5094607;28;20016;-71
2021/11/27 10:40:09;;;;;;;5.95;4.03;;;;;;;;;;5094752;28;20023;-71
2021/11/27 10:42:36;;;;;;;4.45;3.58;;;;;;;;;;5095336;28;20023;-69
2021/11/27 10:45:31;;;;;;;5.30;3.97;;;;;;;;;;5085553;28;20044;-71
2021/11/27 10:48:16;;;;;;;5.05;3.75;;;;;;;;;;5066228;28;20174;-70
2021/11/27 10:50:55;;;;;;;5.38;3.35;;;;;;;;;;5078152;28;20106;-70
2021/11/27 10:53:25;;;;;;;3.95;3.22;;;;;;;;;;5074510;28;20154;-69
2021/11/27 10:55:50;;;;;;;4.57;3.40;;;;;;;;;;5091465;28;20023;-69
2021/11/27 10:58:16;;;;;;;3.88;3.30;;;;;;;;;;5089025;28;20032;-70
2021/11/27 11:00:45;;;;;;;4.55;3.55;;;;;;;;;;5091526;28;20502;-70
2021/11/27 11:03:24;;;;;;;4.47;3.25;;;;;;;;;;5087199;28;20036;-71
2021/11/27 11:05:49;;;;;;;5.47;3.90;;;;;;;;;;5085552;28;20097;-72
2021/11/27 11:08:14;;;;;;;4.68;3.60;;;;;;;;;;5074838;28;20564;-71
2021/11/27 11:10:40;;;;;;;4.88;3.33;;;;;;;;;;5077983;28;20020;-72
2021/11/27 11:13:10;;;;;;;3.78;3.40;;;;;;;;;;5091135;28;20027;-70
2021/11/27 11:15:40;;;;;;;4.07;3.20;;;;;;;;;;5093414;28;20035;-71
2021/11/27 11:18:09;;;;;;;5.72;3.30;;;;;;;;;;5089022;28;20052;-72
2021/11/27 11:20:34;;;;;;;4.32;3.25;;;;;;;;;;5077414;28;20114;-72
2021/11/27 11:23:03;;;;;;;4.05;2.88;;;;;;;;;;5080742;28;20601;-72
2021/11/27 11:25:29;;;;;;;4.45;3.20;;;;;;;;;;5086742;28;20491;-72
2021/11/27 11:27:54;;;;;;;3.58;2.90;;;;;;;;;;5079746;28;20024;-71
2021/11/27 11:30:21;;;;;;;4.38;3.10;;;;;;;;;;5076324;28;20028;-72
2021/11/27 11:32:46;;;;;;;3.90;3.17;;;;;;;;;;5086419;28;20083;-71
2021/11/27 11:35:11;;;;;;;3.80;3.22;;;;;;;;;;5086794;28;20486;-72
2021/11/27 11:37:37;;;;;;;4.32;2.97;;;;;;;;;;5085108;28;20025;-72
2021/11/27 11:40:03;;;;;;;3.92;2.58;;;;;;;;;;5085465;28;20502;-73
2021/11/27 11:42:29;;;;;;;3.45;2.58;;;;;;;;;;5086354;28;20027;-73
2021/11/27 11:44:55;;;;;;;3.25;2.40;;;;;;;;;;5085160;28;20030;-73
2021/11/27 11:47:20;;;;;;;4.45;3.10;;;;;;;;;;5088064;28;20028;-72
2021/11/27 11:49:51;;;;;;;4.70;2.83;;;;;;;;;;5080279;28;20473;-71
2021/11/27 11:52:31;;;;;;;3.67;2.70;;;;;;;;;;5080323;28;20052;-71
2021/11/27 11:55:00;;;;;;;3.83;2.80;;;;;;;;;;5075886;28;20020;-71
2021/11/27 11:57:44;;;;;;;3.75;2.70;;;;;;;;;;5088999;28;20111;-71
2021/11/27 12:00:19;;;;;;;3.60;2.80;;;;;;;;;;5085251;28;20074;-72
2021/11/27 12:02:45;;;;;;;3.65;2.88;;;;;;;;;;5079613;28;20027;-71
2021/11/27 12:05:17;;;;;;;3.88;3.10;;;;;;;;;;5083880;28;20024;-72
2021/11/27 12:07:42;;;;;;;5.07;3.45;;;;;;;;;;5073839;28;20032;-74
2021/11/27 12:10:27;;;;;;;3.38;2.28;;;;;;;;;;5084953;28;20016;-72
2021/11/27 12:13:04;;;;;;;3.03;2.47;;;;;;;;;;5078013;28;20468;-71
2021/11/27 12:15:29;;;;;;;4.63;2.70;;;;;;;;;;5089057;28;20111;-74
2021/11/27 12:18:05;;;;;;;2.95;2.30;;;;;;;;;;5087517;28;20461;-72
2021/11/27 12:20:50;;;;;;;2.67;2.20;;;;;;;;;;5077692;28;20021;-74
2021/11/27 12:23:25;;;;;;;2.28;2.08;;;;;;;;;;5080645;28;20515;-70
2021/11/27 12:26:09;;;;;;;3.05;2.42;;;;;;;;;;5088269;28;20031;-71
2021/11/27 12:28:34;;;;;;;3.60;2.28;;;;;;;;;;5085250;28;20103;-72
2021/11/27 12:31:03;;;;;;;2.33;1.98;;;;;;;;;;5086213;28;20146;-72
2021/11/27 12:33:40;;;;;;;2.80;2.38;;;;;;;;;;5086907;28;20036;-72
2021/11/27 12:36:06;;;;;;;3.55;2.72;;;;;;;;;;5088789;28;20019;-72
2021/11/27 12:38:32;;;;;;;4.57;2.13;;;;;;;;;;5091467;28;20035;-73
2021/11/27 12:40:58;;;;;;;4.50;2.60;;;;;;;;;;5075319;28;20029;-72
2021/11/27 12:43:24;;;;;;;2.92;2.05;;;;;;;;;;5071721;28;20043;-73
2021/11/27 12:45:51;;;;;;;2.95;2.15;;;;;;;;;;5076229;28;20042;-72
2021/11/27 12:48:29;;;;;;;3.53;2.30;;;;;;;;;;5078554;28;20013;-72
2021/11/27 12:51:13;;;;;;;1.95;1.67;;;;;;;;;;5072696;28;20385;-73
2021/11/27 12:53:38;;;;;;;2.03;1.60;;;;;;;;;;5084197;28;20107;-73
2021/11/27 12:56:04;;;;;;;2.63;2.03;;;;;;;;;;5077323;28;20124;-72
2021/11/27 12:58:31;;;;;;;2.17;1.63;;;;;;;;;;5082861;28;20476;-71
2021/11/27 13:00:57;;;;;;;2.72;2.08;;;;;;;;;;5073940;28;20024;-73
2021/11/27 13:03:22;;;;;;;2.83;2.08;;;;;;;;;;5081116;28;20035;-71
2021/11/27 13:05:48;;;;;;;2.97;2.00;;;;;;;;;;5081411;28;20534;-73
2021/11/27 13:08:24;;;;;;;2.72;1.85;;;;;;;;;;5095494;28;20065;-72
2021/11/27 13:10:52;;;;;;;2.08;1.88;;;;;;;;;;5089394;28;20031;-72
2021/11/27 13:13:22;;;;;;;2.50;2.00;;;;;;;;;;5077674;28;20066;-73
2021/11/27 13:15:48;;;;;;;2.03;1.48;;;;;;;;;;5074717;28;20086;-73
2021/11/27 13:18:18;;;;;;;2.28;1.77;;;;;;;;;;5079803;28;20020;-73
2021/11/27 13:20:48;;;;;;;2.83;1.65;;;;;;;;;;5090093;28;20020;-72
2021/11/27 13:23:14;;;;;;;2.22;1.75;;;;;;;;;;5079111;28;20027;-73
2021/11/27 13:25:40;;;;;;;2.95;1.77;;;;;;;;;;5085185;28;20020;-73
2021/11/27 13:28:06;;;;;;;2.35;1.45;;;;;;;;;;5086273;28;20112;-73
2021/11/27 13:30:36;;;;;;;1.55;1.42;;;;;;;;;;5090097;28;20484;-73
2021/11/27 13:33:01;;;;;;;2.83;1.77;;;;;;;;;;5080764;28;20064;-73
2021/11/27 13:35:34;;;;;;;2.45;1.88;;;;;;;;;;5091517;28;20059;-74
2021/11/27 13:37:59;;;;;;;2.30;1.75;;;;;;;;;;5086434;28;20054;-73
2021/11/27 13:40:26;;;;;;;1.88;1.30;;;;;;;;;;5080983;28;20420;-73
2021/11/27 13:42:53;;;;;;;3.28;1.70;;;;;;;;;;5073594;28;20573;-73
2021/11/27 13:45:22;;;;;;;3.08;1.90;;;;;;;;;;5077504;28;20020;-73
2021/11/27 13:47:54;;;;;;;2.67;1.95;;;;;;;;;;5085466;28;20528;-73
2021/11/27 13:50:19;;;;;;;2.13;1.92;;;;;;;;;;5084243;28;20032;-72
2021/11/27 13:52:46;;;;;;;2.83;2.13;;;;;;;;;;5088555;28;20027;-73
2021/11/27 13:55:13;;;;;;;2.50;1.55;;;;;;;;;;5081062;28;20023;-72
2021/11/27 13:57:43;;;;;;;2.15;1.63;;;;;;;;;;5084409;28;20027;-72
2021/11/27 14:00:12;;;;;;;1.58;1.40;;;;;;;;;;5084824;28;20031;-72
2021/11/27 14:02:38;;;;;;;4.07;2.42;;;;;;;;;;5083558;28;20086;-72
2021/11/27 14:05:03;;;;;;;2.17;1.90;;;;;;;;;;5075515;28;20472;-73
2021/11/27 14:07:41;;;;;;;2.35;1.70;;;;;;;;;;5090164;28;20481;-72
2021/11/27 14:10:11;;;;;;;2.30;1.65;;;;;;;;;;5079530;28;20048;-72
2021/11/27 14:12:38;;;;;;;2.13;1.92;;;;;;;;;;5091548;28;20106;-72
2021/11/27 14:15:06;;;;;;;2.38;1.70;;;;;;;;;;5089033;28;20026;-73
2021/11/27 14:17:32;;;;;;;2.03;1.83;;;;;;;;;;5085676;28;20434;-72
2021/11/27 14:20:14;;;;;;;2.42;1.98;;;;;;;;;;5076067;28;20024;-72
2021/11/27 14:22:50;;;;;;;1.90;1.70;;;;;;;;;;5087000;28;20052;-72
2021/11/27 14:25:16;;;;;;;1.92;1.75;;;;;;;;;;5078406;28;20024;-72
2021/11/27 14:27:52;;;;;;;2.15;1.92;;;;;;;;;;5077612;28;20055;-72
2021/11/27 14:30:18;;;;;;;3.38;2.30;;;;;;;;;;5119843;28;20059;-72
2021/11/27 14:32:44;;;;;;;2.55;2.20;;;;;;;;;;5089013;28;20051;-73
2021/11/27 14:35:31;;;;;;;2.67;2.20;;;;;;;;;;5089393;28;20028;-71